EDFH METAR and TAF | Updated Today

EDFH METAR

Frankfurt-Hahn Airport

Observation time: 15 min. ago

EDFH 061950Z 03007KT 9999 FEW038 M02/M02 Q1035

Need help? Read our tutorial on how to read METARs or read the parsed version below.

Frankfurt-Hahn Airport (EDFH) METAR

  • Weather conditions on Mon, 06 Feb 2023 19:50:00 +0000 (15 min. ago):
  • Present conditions: Dry
  • Clouds: A few at 1158 meters
  • Visibility: Greater than 10 km
  • Wind: 30 degrees at 7 knots
  • Temperature: -2 celsius
  • Dew point: -2 celsius
  • Pressure: 1035 millibars
  • Remarks: None


Useful to know...

EDFH TAF

Frankfurt-Hahn Airport

TAF EDFH 061700Z 0618/0718 01007KT 9999 SCT025 PROB30 TEMPO 0620/0705 BKN010 BECMG 0620/0623 09009KT
Observation time: 3:05 hr. ago
Need help? Read our tutorial on how to read TAFs or read the parsed version below.

Parsed version of TAF for Frankfurt-Hahn Airport (EDFH)

  • From 06 February at 18:00 UTC, to day 07 of the month at 18:00 UTC
  • Clouds: Scattered at 762 meters
  • Visibility: Greater than 10 km
  • Wind: 10 degrees at 7
  • Expected to arise temporarily, from 06 February at 20:00 UTC, to day 07 of the month at 05:00 UTC
    Probability of 30%
  • Clouds: Broken sky at 305 meters
  • Expected to arise soon, from 06 February at 20:00 UTC, to day 06 of the month at 23:00 UTC
  • Wind: 90 degrees at 9